Time;durP1;ratioP1;P1;durP2;ratioP2;P2;SDS_P1;SDS_P2;PMS_P1;PMS_P2;Temp;Humidity;BMP_temperature;BMP_pressure;BME280_temperature;BME280_humidity;BME280_pressure;Samples;Min_cycle;Max_cycle;Signal;HPM_P1;HPM_P2
2023/07/25 00:00:58;;;;;;;0.00;0.00;;;;;;;;;;5032082;28;20133;-85
2023/07/25 00:03:24;;;;;;;0.00;0.00;;;;;;;;;;5031510;28;20026;-85
2023/07/25 00:05:50;;;;;;;0.00;0.00;;;;;;;;;;5031423;28;20029;-84
2023/07/25 00:08:16;;;;;;;0.00;0.00;;;;;;;;;;5031676;28;20033;-85
2023/07/25 00:10:42;;;;;;;0.10;0.10;;;;;;;;;;5031799;28;20032;-85
2023/07/25 00:13:08;;;;;;;0.00;0.00;;;;;;;;;;5031216;28;20030;-85
2023/07/25 00:15:35;;;;;;;0.00;0.00;;;;;;;;;;5032988;28;20071;-85
2023/07/25 00:18:01;;;;;;;0.08;0.08;;;;;;;;;;5034916;28;20057;-85
2023/07/25 00:20:27;;;;;;;0.00;0.00;;;;;;;;;;5034900;28;20079;-85
2023/07/25 00:22:53;;;;;;;0.00;0.00;;;;;;;;;;5035334;28;20482;-85
2023/07/25 00:25:19;;;;;;;0.05;0.05;;;;;;;;;;5035005;28;20036;-84
2023/07/25 00:27:45;;;;;;;0.00;0.00;;;;;;;;;;5034349;28;20052;-85
2023/07/25 00:30:11;;;;;;;0.10;0.10;;;;;;;;;;5034758;28;20077;-85
2023/07/25 00:32:37;;;;;;;0.00;0.00;;;;;;;;;;5034989;28;20049;-85
2023/07/25 00:35:03;;;;;;;0.00;0.00;;;;;;;;;;5034645;28;20025;-84
2023/07/25 00:37:30;;;;;;;0.00;0.00;;;;;;;;;;5034759;28;20040;-84
2023/07/25 00:39:56;;;;;;;0.00;0.00;;;;;;;;;;5034535;28;20029;-85
2023/07/25 00:42:23;;;;;;;0.13;0.13;;;;;;;;;;5034270;28;20021;-85
2023/07/25 00:44:49;;;;;;;0.65;0.30;;;;;;;;;;5034892;28;20087;-85
2023/07/25 00:47:16;;;;;;;0.10;0.10;;;;;;;;;;5034339;28;20034;-85
2023/07/25 00:49:42;;;;;;;0.15;0.15;;;;;;;;;;5035161;28;20029;-85
2023/07/25 00:52:09;;;;;;;0.13;0.13;;;;;;;;;;5034388;28;20033;-85
2023/07/25 00:54:38;;;;;;;0.05;0.05;;;;;;;;;;5034321;28;20022;-85
2023/07/25 00:57:05;;;;;;;0.00;0.00;;;;;;;;;;5034337;28;20026;-84
2023/07/25 00:59:31;;;;;;;0.00;0.00;;;;;;;;;;5034138;28;20032;-85
2023/07/25 01:01:57;;;;;;;0.00;0.00;;;;;;;;;;5034322;28;20386;-85
2023/07/25 01:04:23;;;;;;;0.00;0.00;;;;;;;;;;5034084;28;20026;-85
2023/07/25 01:06:50;;;;;;;0.00;0.00;;;;;;;;;;5034462;28;20038;-85
2023/07/25 01:09:16;;;;;;;0.30;0.30;;;;;;;;;;5034115;28;20025;-85
2023/07/25 01:11:42;;;;;;;0.08;0.08;;;;;;;;;;5033793;28;20033;-85
2023/07/25 01:14:08;;;;;;;0.00;0.00;;;;;;;;;;5034041;28;20423;-85
2023/07/25 01:16:35;;;;;;;0.20;0.20;;;;;;;;;;5033230;28;20080;-85
2023/07/25 01:19:01;;;;;;;0.00;0.00;;;;;;;;;;5034372;28;20075;-85
2023/07/25 01:21:28;;;;;;;0.08;0.08;;;;;;;;;;5034052;28;20029;-84
2023/07/25 01:23:59;;;;;;;0.10;0.10;;;;;;;;;;5033739;28;20486;-85
2023/07/25 01:26:25;;;;;;;0.08;0.08;;;;;;;;;;5032912;28;20034;-85
2023/07/25 01:28:51;;;;;;;0.00;0.00;;;;;;;;;;5033385;28;20029;-85
2023/07/25 01:31:17;;;;;;;0.00;0.00;;;;;;;;;;5033953;28;20036;-85
2023/07/25 01:33:43;;;;;;;0.00;0.00;;;;;;;;;;5033587;28;20449;-85
2023/07/25 01:36:08;;;;;;;0.00;0.00;;;;;;;;;;5033685;28;20033;-85
2023/07/25 01:38:34;;;;;;;0.10;0.10;;;;;;;;;;5033236;28;20331;-85
2023/07/25 01:41:00;;;;;;;0.00;0.00;;;;;;;;;;5033401;28;20037;-85
2023/07/25 01:43:26;;;;;;;0.10;0.10;;;;;;;;;;5033863;28;20018;-85
2023/07/25 01:45:52;;;;;;;0.00;0.00;;;;;;;;;;5033155;28;20488;-84
2023/07/25 01:48:18;;;;;;;0.17;0.17;;;;;;;;;;5033382;28;20025;-85
2023/07/25 01:50:44;;;;;;;0.10;0.10;;;;;;;;;;5033613;28;20029;-85
2023/07/25 01:53:10;;;;;;;0.10;0.10;;;;;;;;;;5032779;28;20032;-85
2023/07/25 01:55:37;;;;;;;0.20;0.20;;;;;;;;;;5034305;28;20022;-85
2023/07/25 01:58:03;;;;;;;0.00;0.00;;;;;;;;;;5033347;28;20104;-85
2023/07/25 02:00:29;;;;;;;0.08;0.08;;;;;;;;;;5032871;28;20150;-85
2023/07/25 02:02:55;;;;;;;0.10;0.10;;;;;;;;;;5033778;28;20025;-85
2023/07/25 02:05:21;;;;;;;0.08;0.08;;;;;;;;;;5032896;28;20060;-85
2023/07/25 02:07:47;;;;;;;0.10;0.10;;;;;;;;;;5032764;28;20508;-85
2023/07/25 02:10:14;;;;;;;0.10;0.10;;;;;;;;;;5033327;28;20021;-85
2023/07/25 02:12:40;;;;;;;0.00;0.00;;;;;;;;;;5032731;28;20041;-85
2023/07/25 02:15:06;;;;;;;0.00;0.00;;;;;;;;;;5032751;28;20021;-85
2023/07/25 02:17:32;;;;;;;0.43;0.20;;;;;;;;;;5032749;28;20397;-84
2023/07/25 02:19:58;;;;;;;0.15;0.15;;;;;;;;;;5032755;28;20022;-85
2023/07/25 02:22:24;;;;;;;0.10;0.10;;;;;;;;;;5032826;28;20018;-85
2023/07/25 02:24:50;;;;;;;0.30;0.22;;;;;;;;;;5032477;28;20029;-84
2023/07/25 02:27:16;;;;;;;0.10;0.10;;;;;;;;;;5032447;28;20095;-84
2023/07/25 02:29:42;;;;;;;0.00;0.00;;;;;;;;;;5032999;28;20104;-85
2023/07/25 02:32:08;;;;;;;0.00;0.00;;;;;;;;;;5032991;28;20029;-84
2023/07/25 02:34:34;;;;;;;0.10;0.10;;;;;;;;;;5032452;28;20036;-85
2023/07/25 02:37:00;;;;;;;0.00;0.00;;;;;;;;;;5032213;28;20030;-84
2023/07/25 02:39:26;;;;;;;0.05;0.05;;;;;;;;;;5031468;28;20101;-85
2023/07/25 02:41:52;;;;;;;0.30;0.22;;;;;;;;;;5032329;28;20029;-85
2023/07/25 02:44:18;;;;;;;0.08;0.08;;;;;;;;;;5033366;28;20021;-85
2023/07/25 02:46:44;;;;;;;0.00;0.00;;;;;;;;;;5032309;28;20037;-85
2023/07/25 02:49:10;;;;;;;0.10;0.10;;;;;;;;;;5032344;28;20013;-84
2023/07/25 02:51:36;;;;;;;0.05;0.05;;;;;;;;;;5032500;28;20025;-85
2023/07/25 02:54:02;;;;;;;0.00;0.00;;;;;;;;;;5032213;28;20101;-85
2023/07/25 02:56:28;;;;;;;0.00;0.00;;;;;;;;;;5032039;28;20029;-85
2023/07/25 02:58:54;;;;;;;0.10;0.10;;;;;;;;;;5032340;28;20014;-85
2023/07/25 03:01:20;;;;;;;0.30;0.20;;;;;;;;;;5032508;28;20033;-85
2023/07/25 03:03:46;;;;;;;0.10;0.10;;;;;;;;;;5032270;28;20025;-85
2023/07/25 03:06:12;;;;;;;0.00;0.00;;;;;;;;;;5031673;28;20501;-85
2023/07/25 03:08:38;;;;;;;0.10;0.10;;;;;;;;;;5032004;28;20025;-85
2023/07/25 03:11:04;;;;;;;0.10;0.10;;;;;;;;;;5032097;28;20036;-85
2023/07/25 03:13:30;;;;;;;0.00;0.00;;;;;;;;;;5032218;28;20017;-85
2023/07/25 03:15:56;;;;;;;0.13;0.13;;;;;;;;;;5032130;28;20022;-85
2023/07/25 03:18:22;;;;;;;0.00;0.00;;;;;;;;;;5032111;28;20045;-85
2023/07/25 03:20:48;;;;;;;0.00;0.00;;;;;;;;;;5031867;28;20028;-85
2023/07/25 03:23:14;;;;;;;0.00;0.00;;;;;;;;;;5031985;28;20120;-85
2023/07/25 03:25:40;;;;;;;0.00;0.00;;;;;;;;;;5031831;28;20026;-85
2023/07/25 03:28:06;;;;;;;0.10;0.10;;;;;;;;;;5031866;28;20041;-85
2023/07/25 03:30:32;;;;;;;0.10;0.10;;;;;;;;;;5032271;28;20025;-85
2023/07/25 03:32:58;;;;;;;0.00;0.00;;;;;;;;;;5032008;28;20048;-85
2023/07/25 03:35:24;;;;;;;0.00;0.00;;;;;;;;;;5031432;28;20095;-85
2023/07/25 03:37:50;;;;;;;0.10;0.10;;;;;;;;;;5032344;28;20017;-84
2023/07/25 03:40:16;;;;;;;0.25;0.22;;;;;;;;;;5031729;28;20116;-85
2023/07/25 03:42:42;;;;;;;0.55;0.55;;;;;;;;;;5031712;28;20034;-85
2023/07/25 03:45:08;;;;;;;0.10;0.10;;;;;;;;;;5032123;28;20036;-85
2023/07/25 03:47:34;;;;;;;0.00;0.00;;;;;;;;;;5031795;28;20037;-85
2023/07/25 03:50:00;;;;;;;0.00;0.00;;;;;;;;;;5032093;28;20025;-85
2023/07/25 03:52:27;;;;;;;0.00;0.00;;;;;;;;;;5035505;28;20114;-85
2023/07/25 03:54:53;;;;;;;0.10;0.10;;;;;;;;;;5035706;28;20025;-85
2023/07/25 03:57:19;;;;;;;0.00;0.00;;;;;;;;;;5036222;28;20079;-85
2023/07/25 03:59:45;;;;;;;0.20;0.20;;;;;;;;;;5035416;28;20017;-85
2023/07/25 04:02:11;;;;;;;0.10;0.10;;;;;;;;;;5035376;28;20543;-85
2023/07/25 04:04:37;;;;;;;0.10;0.10;;;;;;;;;;5035284;28;20132;-85
2023/07/25 04:07:03;;;;;;;0.10;0.10;;;;;;;;;;5035026;28;20041;-84
2023/07/25 04:09:29;;;;;;;0.00;0.00;;;;;;;;;;5035832;28;20025;-85
2023/07/25 04:11:55;;;;;;;0.10;0.10;;;;;;;;;;5035190;28;20028;-84
2023/07/25 04:14:21;;;;;;;0.08;0.08;;;;;;;;;;5035107;28;20018;-85
2023/07/25 04:16:47;;;;;;;0.00;0.00;;;;;;;;;;5035333;28;20132;-85
2023/07/25 04:19:13;;;;;;;0.10;0.10;;;;;;;;;;5034679;28;20057;-85
2023/07/25 04:21:39;;;;;;;0.00;0.00;;;;;;;;;;5035107;28;20091;-85
2023/07/25 04:24:05;;;;;;;0.25;0.05;;;;;;;;;;5035195;28;20493;-84
2023/07/25 04:26:32;;;;;;;2.40;1.08;;;;;;;;;;5034049;28;20500;-84
2023/07/25 04:28:58;;;;;;;0.03;0.03;;;;;;;;;;5035331;28;20025;-84
2023/07/25 04:31:23;;;;;;;0.10;0.10;;;;;;;;;;5034692;28;20029;-85
2023/07/25 04:33:49;;;;;;;0.08;0.08;;;;;;;;;;5034419;28;20439;-85
2023/07/25 04:36:15;;;;;;;0.10;0.10;;;;;;;;;;5035190;28;20025;-85
2023/07/25 04:38:41;;;;;;;0.10;0.10;;;;;;;;;;5034543;28;20034;-85
2023/07/25 04:41:07;;;;;;;0.00;0.00;;;;;;;;;;5034508;28;20371;-85
2023/07/25 04:43:33;;;;;;;0.10;0.10;;;;;;;;;;5034701;28;20037;-84
2023/07/25 04:45:59;;;;;;;0.17;0.17;;;;;;;;;;5034722;28;20053;-85
2023/07/25 04:48:25;;;;;;;0.40;0.40;;;;;;;;;;5034950;28;20107;-85
2023/07/25 04:50:51;;;;;;;0.15;0.15;;;;;;;;;;5034406;28;20537;-84
2023/07/25 04:53:17;;;;;;;0.00;0.00;;;;;;;;;;5034367;28;20053;-85
2023/07/25 04:55:43;;;;;;;0.00;0.00;;;;;;;;;;5034631;28;20087;-84
2023/07/25 04:58:09;;;;;;;0.32;0.20;;;;;;;;;;5034311;28;20029;-85
2023/07/25 05:00:35;;;;;;;0.00;0.00;;;;;;;;;;5034240;28;20152;-84
2023/07/25 05:03:01;;;;;;;0.17;0.17;;;;;;;;;;5032904;28;20108;-84
2023/07/25 05:05:27;;;;;;;0.10;0.10;;;;;;;;;;5034066;28;20377;-85
2023/07/25 05:07:53;;;;;;;0.10;0.10;;;;;;;;;;5034407;28;20041;-85
2023/07/25 05:10:19;;;;;;;0.10;0.10;;;;;;;;;;5034094;28;20064;-85
2023/07/25 05:12:45;;;;;;;0.00;0.00;;;;;;;;;;5034041;28;20029;-85
2023/07/25 05:15:11;;;;;;;0.10;0.10;;;;;;;;;;5033875;28;20026;-85
2023/07/25 05:17:37;;;;;;;0.00;0.00;;;;;;;;;;5033399;28;20042;-85
2023/07/25 05:20:04;;;;;;;0.10;0.10;;;;;;;;;;5033889;28;20084;-85
2023/07/25 05:22:30;;;;;;;0.10;0.10;;;;;;;;;;5033844;28;20057;-85
2023/07/25 05:24:56;;;;;;;0.05;0.05;;;;;;;;;;5033706;28;20049;-84
2023/07/25 05:27:22;;;;;;;0.08;0.08;;;;;;;;;;5033580;28;20045;-85
2023/07/25 05:29:48;;;;;;;0.00;0.00;;;;;;;;;;5033984;28;20385;-84
2023/07/25 05:32:14;;;;;;;0.10;0.10;;;;;;;;;;5033446;28;20025;-85
2023/07/25 05:34:39;;;;;;;0.40;0.13;;;;;;;;;;5033438;28;20527;-84
2023/07/25 05:37:06;;;;;;;0.00;0.00;;;;;;;;;;5033830;28;20030;-84
2023/07/25 05:39:32;;;;;;;0.05;0.05;;;;;;;;;;5033575;28;20025;-85
2023/07/25 05:41:58;;;;;;;0.00;0.00;;;;;;;;;;5033357;28;20411;-85
2023/07/25 05:44:24;;;;;;;0.10;0.10;;;;;;;;;;5033265;28;20021;-85
2023/07/25 05:46:50;;;;;;;0.20;0.20;;;;;;;;;;5032977;28;20073;-84
2023/07/25 05:49:15;;;;;;;0.10;0.10;;;;;;;;;;5033313;28;20022;-84
2023/07/25 05:51:41;;;;;;;0.10;0.10;;;;;;;;;;5033606;28;20458;-85
2023/07/25 05:54:08;;;;;;;0.52;0.10;;;;;;;;;;5031950;28;20036;-85
2023/07/25 05:56:34;;;;;;;1.45;0.32;;;;;;;;;;5033106;28;20102;-84
2023/07/25 05:59:00;;;;;;;0.10;0.10;;;;;;;;;;5033230;28;20486;-85
2023/07/25 06:01:26;;;;;;;0.00;0.00;;;;;;;;;;5033060;28;20033;-85
2023/07/25 06:03:52;;;;;;;0.10;0.10;;;;;;;;;;5031608;28;20155;-85
2023/07/25 06:06:18;;;;;;;0.10;0.10;;;;;;;;;;5032809;28;20063;-84
2023/07/25 06:08:43;;;;;;;0.17;0.17;;;;;;;;;;5033336;28;20040;-84
2023/07/25 06:11:10;;;;;;;0.10;0.10;;;;;;;;;;5032947;28;20389;-85
2023/07/25 06:13:35;;;;;;;0.10;0.10;;;;;;;;;;5032618;28;20049;-85
2023/07/25 06:16:01;;;;;;;0.10;0.10;;;;;;;;;;5032247;28;20089;-85
2023/07/25 06:18:27;;;;;;;0.00;0.00;;;;;;;;;;5032930;28;20104;-85
2023/07/25 06:20:53;;;;;;;0.10;0.10;;;;;;;;;;5032926;28;20033;-84
2023/07/25 06:23:20;;;;;;;0.00;0.00;;;;;;;;;;5032671;28;20026;-85
2023/07/25 06:25:46;;;;;;;0.20;0.20;;;;;;;;;;5032636;28;20449;-85
2023/07/25 06:28:15;;;;;;;0.00;0.00;;;;;;;;;;5033232;28;20460;-85
2023/07/25 06:30:41;;;;;;;0.10;0.10;;;;;;;;;;5032587;28;20021;-85
2023/07/25 06:33:07;;;;;;;0.05;0.05;;;;;;;;;;5032487;28;20034;-84
2023/07/25 06:35:33;;;;;;;0.10;0.10;;;;;;;;;;5032446;28;20489;-85
2023/07/25 06:37:59;;;;;;;0.00;0.00;;;;;;;;;;5032613;28;20091;-85
2023/07/25 06:40:25;;;;;;;0.10;0.10;;;;;;;;;;5032407;28;20028;-84
2023/07/25 06:42:51;;;;;;;0.00;0.00;;;;;;;;;;5032790;28;20021;-84
2023/07/25 06:45:17;;;;;;;0.38;0.20;;;;;;;;;;5032323;28;20033;-85
2023/07/25 06:47:43;;;;;;;0.13;0.10;;;;;;;;;;5032641;28;20041;-85
2023/07/25 06:50:09;;;;;;;0.15;0.15;;;;;;;;;;5032270;28;20022;-85
2023/07/25 06:52:35;;;;;;;0.17;0.17;;;;;;;;;;5032265;28;20029;-84
2023/07/25 06:55:01;;;;;;;0.00;0.00;;;;;;;;;;5032076;28;20029;-85
2023/07/25 06:57:28;;;;;;;0.00;0.00;;;;;;;;;;5032297;28;20616;-85
2023/07/25 06:59:55;;;;;;;0.10;0.10;;;;;;;;;;5032931;28;20525;-85
2023/07/25 07:02:21;;;;;;;0.30;0.30;;;;;;;;;;5032233;28;20111;-85
2023/07/25 07:04:47;;;;;;;0.25;0.25;;;;;;;;;;5032067;28;20025;-85
2023/07/25 07:07:13;;;;;;;0.10;0.10;;;;;;;;;;5032617;28;20451;-85
2023/07/25 07:09:39;;;;;;;0.00;0.00;;;;;;;;;;5032480;28;20083;-85
2023/07/25 07:12:06;;;;;;;0.20;0.20;;;;;;;;;;5031727;28;20029;-85
2023/07/25 07:14:31;;;;;;;0.10;0.10;;;;;;;;;;5031982;28;20029;-85
2023/07/25 07:16:58;;;;;;;0.10;0.10;;;;;;;;;;5032325;28;20383;-85
2023/07/25 07:19:24;;;;;;;0.22;0.22;;;;;;;;;;5032025;28;20033;-85
2023/07/25 07:21:50;;;;;;;0.20;0.20;;;;;;;;;;5031988;28;20033;-85
2023/07/25 07:24:15;;;;;;;0.40;0.40;;;;;;;;;;5032715;28;20064;-85
2023/07/25 07:26:41;;;;;;;0.10;0.10;;;;;;;;;;5035013;28;20113;-85
2023/07/25 07:29:09;;;;;;;0.10;0.10;;;;;;;;;;5036619;28;20032;-85
2023/07/25 07:31:35;;;;;;;0.20;0.15;;;;;;;;;;5034617;28;20500;-85
2023/07/25 07:34:10;;;;;;;0.03;0.03;;;;;;;;;;5036244;28;20026;-85
2023/07/25 07:36:36;;;;;;;1.15;0.65;;;;;;;;;;5035741;28;20533;-85
2023/07/25 07:39:02;;;;;;;0.30;0.30;;;;;;;;;;5036154;28;20056;-85
2023/07/25 07:41:28;;;;;;;0.17;0.17;;;;;;;;;;5035524;28;20116;-85
2023/07/25 07:43:54;;;;;;;0.20;0.20;;;;;;;;;;5035752;28;20100;-85
2023/07/25 07:46:20;;;;;;;0.20;0.20;;;;;;;;;;5035385;28;20486;-85
2023/07/25 07:48:46;;;;;;;0.00;0.00;;;;;;;;;;5035521;28;20026;-85
2023/07/25 07:51:12;;;;;;;0.05;0.05;;;;;;;;;;5035733;28;20036;-85
2023/07/25 07:53:38;;;;;;;1.17;0.20;;;;;;;;;;5035696;28;20021;-85
2023/07/25 07:56:05;;;;;;;0.10;0.10;;;;;;;;;;5034995;28;20064;-84
2023/07/25 07:58:31;;;;;;;8.15;0.95;;;;;;;;;;5035293;28;20029;-85
2023/07/25 08:00:57;;;;;;;0.20;0.20;;;;;;;;;;5035674;28;20535;-85
2023/07/25 08:03:23;;;;;;;0.10;0.10;;;;;;;;;;5035446;28;20053;-85
2023/07/25 08:05:55;;;;;;;0.17;0.10;;;;;;;;;;5035033;28;20391;-85
2023/07/25 08:08:21;;;;;;;0.10;0.10;;;;;;;;;;5035279;28;20028;-85
2023/07/25 08:10:47;;;;;;;0.10;0.10;;;;;;;;;;5034842;28;20390;-85
2023/07/25 08:13:13;;;;;;;0.10;0.10;;;;;;;;;;5035184;28;20022;-85
2023/07/25 08:15:39;;;;;;;0.10;0.10;;;;;;;;;;5035322;28;20116;-85
2023/07/25 08:18:05;;;;;;;0.85;0.35;;;;;;;;;;5034827;28;20456;-85
2023/07/25 08:20:31;;;;;;;0.00;0.00;;;;;;;;;;5034985;28;20112;-85
2023/07/25 08:22:57;;;;;;;0.10;0.10;;;;;;;;;;5034872;28;20025;-85
2023/07/25 08:25:23;;;;;;;0.00;0.00;;;;;;;;;;5034488;28;20136;-85
2023/07/25 08:27:49;;;;;;;0.10;0.10;;;;;;;;;;5034710;28;20038;-86
2023/07/25 08:30:15;;;;;;;0.38;0.38;;;;;;;;;;5035041;28;20470;-85
2023/07/25 08:32:41;;;;;;;0.98;0.43;;;;;;;;;;5034783;28;20075;-85
2023/07/25 08:35:07;;;;;;;0.17;0.17;;;;;;;;;;5034634;28;20063;-85
2023/07/25 08:37:37;;;;;;;0.10;0.10;;;;;;;;;;5034900;28;20025;-85
2023/07/25 08:40:03;;;;;;;0.20;0.20;;;;;;;;;;5034317;28;20101;-86
2023/07/25 08:42:31;;;;;;;0.00;0.00;;;;;;;;;;5035001;28;20021;-84
2023/07/25 08:44:58;;;;;;;0.57;0.30;;;;;;;;;;5034348;28;20022;-85
2023/07/25 08:47:27;;;;;;;0.10;0.10;;;;;;;;;;5034411;28;20048;-86
2023/07/25 08:49:53;;;;;;;0.75;0.55;;;;;;;;;;5034881;28;20100;-85
2023/07/25 08:52:20;;;;;;;1.55;0.30;;;;;;;;;;5034445;28;20038;-85
2023/07/25 08:54:48;;;;;;;0.00;0.00;;;;;;;;;;5033948;28;20025;-86
2023/07/25 08:57:16;;;;;;;0.93;0.40;;;;;;;;;;5034322;28;20481;-85
2023/07/25 08:59:42;;;;;;;0.00;0.00;;;;;;;;;;5034233;28;20030;-85
2023/07/25 09:02:09;;;;;;;0.10;0.10;;;;;;;;;;5034334;28;20501;-85
2023/07/25 09:04:35;;;;;;;0.47;0.47;;;;;;;;;;5034081;28;20466;-85
2023/07/25 09:07:01;;;;;;;0.20;0.20;;;;;;;;;;5034050;28;20049;-85
2023/07/25 09:09:27;;;;;;;0.20;0.20;;;;;;;;;;5034412;28;20029;-85
2023/07/25 09:11:54;;;;;;;0.10;0.10;;;;;;;;;;5032820;28;20367;-85
2023/07/25 09:14:20;;;;;;;0.10;0.10;;;;;;;;;;5033726;28;20473;-85
2023/07/25 09:16:46;;;;;;;0.00;0.00;;;;;;;;;;5033889;28;20525;-85
2023/07/25 09:19:13;;;;;;;0.00;0.00;;;;;;;;;;5034190;28;20052;-85
2023/07/25 09:21:45;;;;;;;0.10;0.10;;;;;;;;;;5033865;28;20017;-85
2023/07/25 09:24:11;;;;;;;0.10;0.10;;;;;;;;;;5033354;28;20381;-85
2023/07/25 09:26:39;;;;;;;0.20;0.20;;;;;;;;;;5033589;28;20022;-85
2023/07/25 09:29:05;;;;;;;0.10;0.10;;;;;;;;;;5033570;28;20096;-85
2023/07/25 09:31:34;;;;;;;1.23;0.30;;;;;;;;;;5033616;28;20076;-85
2023/07/25 09:34:00;;;;;;;0.00;0.00;;;;;;;;;;5032268;28;20091;-85
2023/07/25 09:36:30;;;;;;;0.00;0.00;;;;;;;;;;5033562;28;20025;-85
2023/07/25 09:38:58;;;;;;;0.00;0.00;;;;;;;;;;5033180;28;20486;-85
2023/07/25 09:41:24;;;;;;;0.10;0.10;;;;;;;;;;5033482;28;20026;-85
2023/07/25 09:43:51;;;;;;;0.10;0.10;;;;;;;;;;5033587;28;20036;-86
2023/07/25 09:46:18;;;;;;;0.10;0.10;;;;;;;;;;5033442;28;20033;-85
2023/07/25 09:48:44;;;;;;;0.08;0.08;;;;;;;;;;5032891;28;20036;-86
2023/07/25 09:51:12;;;;;;;0.00;0.00;;;;;;;;;;5032915;28;20033;-85
2023/07/25 09:53:38;;;;;;;0.05;0.05;;;;;;;;;;5033429;28;20104;-85
2023/07/25 09:56:04;;;;;;;0.00;0.00;;;;;;;;;;5033067;28;20045;-86
2023/07/25 09:58:31;;;;;;;0.28;0.20;;;;;;;;;;5033015;28;20018;-85
2023/07/25 10:00:57;;;;;;;0.20;0.20;;;;;;;;;;5033227;28;20470;-85
2023/07/25 10:03:24;;;;;;;0.00;0.00;;;;;;;;;;5033043;28;20029;-85
2023/07/25 10:05:50;;;;;;;0.10;0.10;;;;;;;;;;5031446;28;20026;-84
2023/07/25 10:08:19;;;;;;;0.03;0.03;;;;;;;;;;5033014;28;20478;-85
2023/07/25 10:10:45;;;;;;;0.10;0.10;;;;;;;;;;5033089;28;20128;-85
2023/07/25 10:13:11;;;;;;;0.15;0.15;;;;;;;;;;5032799;28;20508;-85
2023/07/25 10:15:39;;;;;;;0.00;0.00;;;;;;;;;;5033210;28;20030;-85
2023/07/25 10:18:17;;;;;;;0.10;0.10;;;;;;;;;;5032483;28;20409;-85
2023/07/25 10:20:43;;;;;;;0.00;0.00;;;;;;;;;;5032804;28;20025;-85
2023/07/25 10:23:10;;;;;;;0.00;0.00;;;;;;;;;;5032507;28;20061;-85
2023/07/25 10:25:36;;;;;;;0.00;0.00;;;;;;;;;;5032888;28;20022;-85
2023/07/25 10:28:03;;;;;;;0.17;0.17;;;;;;;;;;5032336;28;20042;-85
2023/07/25 10:30:30;;;;;;;0.05;0.05;;;;;;;;;;5032567;28;20036;-84
2023/07/25 10:32:59;;;;;;;0.25;0.20;;;;;;;;;;5033079;28;20026;-84
2023/07/25 10:35:43;;;;;;;0.00;0.00;;;;;;;;;;5032191;28;20028;-85
2023/07/25 10:38:11;;;;;;;0.15;0.15;;;;;;;;;;5032359;28;20539;-85
2023/07/25 10:40:55;;;;;;;0.00;0.00;;;;;;;;;;5032462;28;20061;-85
2023/07/25 10:43:22;;;;;;;0.00;0.00;;;;;;;;;;5032416;28;20084;-85
2023/07/25 10:45:49;;;;;;;0.50;0.43;;;;;;;;;;5032964;28;20484;-85
2023/07/25 10:48:28;;;;;;;0.20;0.20;;;;;;;;;;5032374;28;20044;-86
2023/07/25 10:50:54;;;;;;;0.43;0.43;;;;;;;;;;5032075;28;20048;-85
2023/07/25 10:53:22;;;;;;;0.08;0.08;;;;;;;;;;5032200;28;20040;-85
2023/07/25 10:56:03;;;;;;;0.10;0.10;;;;;;;;;;5032419;28;20025;-85
2023/07/25 10:58:33;;;;;;;0.30;0.30;;;;;;;;;;5032058;28;20026;-85
2023/07/25 11:00:59;;;;;;;0.10;0.10;;;;;;;;;;5031162;28;20481;-85
2023/07/25 11:03:29;;;;;;;0.00;0.00;;;;;;;;;;5032144;28;20068;-86
2023/07/25 11:06:07;;;;;;;0.10;0.10;;;;;;;;;;5032440;28;20033;-87
2023/07/25 11:08:41;;;;;;;0.00;0.00;;;;;;;;;;5032453;28;20029;-85
2023/07/25 11:11:09;;;;;;;0.00;0.00;;;;;;;;;;5031863;28;20056;-85
2023/07/25 11:13:36;;;;;;;0.05;0.05;;;;;;;;;;5032097;28;20022;-85
2023/07/25 11:16:02;;;;;;;0.00;0.00;;;;;;;;;;5031962;28;20668;-85
2023/07/25 11:18:28;;;;;;;0.32;0.32;;;;;;;;;;5031565;28;20029;-85
2023/07/25 11:20:58;;;;;;;0.00;0.00;;;;;;;;;;5032086;28;20036;-85
2023/07/25 11:23:24;;;;;;;0.00;0.00;;;;;;;;;;5031909;28;20029;-85
2023/07/25 11:25:57;;;;;;;0.03;0.03;;;;;;;;;;5031744;28;20022;-85
2023/07/25 11:28:25;;;;;;;0.00;0.00;;;;;;;;;;5033133;28;20120;-85
2023/07/25 11:30:55;;;;;;;0.20;0.20;;;;;;;;;;5031928;28;20021;-85
2023/07/25 11:33:21;;;;;;;0.10;0.10;;;;;;;;;;5031447;28;20026;-84
2023/07/25 11:35:54;;;;;;;0.10;0.10;;;;;;;;;;5032007;28;20386;-85
2023/07/25 11:38:20;;;;;;;0.00;0.00;;;;;;;;;;5031696;28;20026;-85
2023/07/25 11:40:50;;;;;;;0.43;0.43;;;;;;;;;;5030616;28;20104;-85
2023/07/25 11:43:16;;;;;;;0.10;0.10;;;;;;;;;;5031648;28;20560;-85
2023/07/25 11:45:44;;;;;;;0.03;0.03;;;;;;;;;;5031787;28;20017;-85
2023/07/25 11:48:11;;;;;;;0.00;0.00;;;;;;;;;;5031490;28;20042;-85
2023/07/25 11:50:38;;;;;;;0.10;0.10;;;;;;;;;;5031752;28;20032;-85
2023/07/25 11:53:04;;;;;;;0.00;0.00;;;;;;;;;;5032055;28;20100;-86
2023/07/25 11:55:30;;;;;;;1.15;0.55;;;;;;;;;;5031620;28;20083;-85
2023/07/25 11:57:56;;;;;;;0.10;0.10;;;;;;;;;;5031627;28;20113;-85
2023/07/25 12:00:23;;;;;;;0.30;0.22;;;;;;;;;;5031636;28;20053;-86
2023/07/25 12:02:49;;;;;;;0.00;0.00;;;;;;;;;;5031443;28;20033;-86
2023/07/25 12:05:28;;;;;;;0.30;0.10;;;;;;;;;;5031596;28;20060;-86
2023/07/25 12:08:02;;;;;;;0.00;0.00;;;;;;;;;;5031321;28;20041;-85
2023/07/25 12:10:29;;;;;;;0.00;0.00;;;;;;;;;;5031489;28;20503;-86
2023/07/25 12:12:55;;;;;;;0.13;0.13;;;;;;;;;;5035504;28;20075;-85
2023/07/25 12:15:23;;;;;;;0.20;0.20;;;;;;;;;;5035008;28;20056;-86
2023/07/25 12:17:49;;;;;;;0.20;0.20;;;;;;;;;;5034618;28;20069;-86
2023/07/25 12:20:19;;;;;;;0.20;0.20;;;;;;;;;;5034964;28;20034;-86
2023/07/25 12:22:46;;;;;;;0.17;0.10;;;;;;;;;;5034888;28;20034;-86
2023/07/25 12:25:16;;;;;;;1.05;0.32;;;;;;;;;;5035336;28;20025;-85
2023/07/25 12:27:46;;;;;;;0.03;0.03;;;;;;;;;;5034715;28;20037;-86
2023/07/25 12:30:12;;;;;;;0.08;0.08;;;;;;;;;;5034967;28;20424;-86
2023/07/25 12:32:38;;;;;;;0.00;0.00;;;;;;;;;;5034408;28;20033;-86
2023/07/25 12:35:04;;;;;;;0.08;0.08;;;;;;;;;;5034794;28;20044;-86
2023/07/25 12:37:30;;;;;;;0.08;0.08;;;;;;;;;;5034748;28;20069;-84
2023/07/25 12:39:56;;;;;;;0.10;0.10;;;;;;;;;;5034836;28;20099;-85
2023/07/25 12:42:22;;;;;;;0.00;0.00;;;;;;;;;;5034812;28;20029;-84
2023/07/25 12:44:48;;;;;;;0.10;0.10;;;;;;;;;;5034732;28;20063;-84
2023/07/25 12:47:14;;;;;;;0.00;0.00;;;;;;;;;;5034784;28;20064;-84
2023/07/25 12:49:40;;;;;;;0.05;0.05;;;;;;;;;;5034537;28;20665;-84
2023/07/25 12:52:06;;;;;;;0.00;0.00;;;;;;;;;;5034467;28;20025;-84
2023/07/25 12:54:35;;;;;;;0.43;0.28;;;;;;;;;;5034389;28;20068;-84
2023/07/25 12:57:01;;;;;;;0.00;0.00;;;;;;;;;;5034710;28;20029;-84
2023/07/25 12:59:27;;;;;;;0.52;0.47;;;;;;;;;;5034319;28;20541;-84
2023/07/25 13:01:54;;;;;;;0.00;0.00;;;;;;;;;;5033971;28;20034;-84
2023/07/25 13:04:20;;;;;;;0.10;0.10;;;;;;;;;;5034181;28;20108;-84
2023/07/25 13:06:46;;;;;;;0.00;0.00;;;;;;;;;;5034407;28;20112;-84
2023/07/25 13:09:12;;;;;;;0.13;0.13;;;;;;;;;;5033969;28;20022;-84
2023/07/25 13:11:38;;;;;;;0.77;0.22;;;;;;;;;;5034182;28;20386;-84
2023/07/25 13:14:04;;;;;;;0.28;0.10;;;;;;;;;;5034037;28;20029;-84
2023/07/25 13:16:30;;;;;;;0.00;0.00;;;;;;;;;;5033400;28;20064;-84
2023/07/25 13:18:56;;;;;;;0.17;0.17;;;;;;;;;;5034187;28;20029;-84
2023/07/25 13:21:22;;;;;;;0.10;0.10;;;;;;;;;;5033988;28;20383;-84
2023/07/25 13:23:48;;;;;;;0.20;0.10;;;;;;;;;;5032892;28;20040;-84
2023/07/25 13:26:14;;;;;;;0.00;0.00;;;;;;;;;;5033682;28;20025;-84
2023/07/25 13:28:40;;;;;;;0.10;0.10;;;;;;;;;;5033755;28;20139;-84
2023/07/25 13:31:06;;;;;;;0.00;0.00;;;;;;;;;;5033389;28;20030;-84
2023/07/25 13:33:31;;;;;;;0.15;0.15;;;;;;;;;;5034104;28;20426;-84
2023/07/25 13:35:57;;;;;;;0.10;0.10;;;;;;;;;;5033921;28;20029;-84
2023/07/25 13:38:23;;;;;;;0.00;0.00;;;;;;;;;;5033559;28;20017;-84
2023/07/25 13:40:52;;;;;;;0.10;0.10;;;;;;;;;;5033641;28;20108;-84
2023/07/25 13:43:18;;;;;;;0.00;0.00;;;;;;;;;;5032221;28;20034;-84
2023/07/25 13:45:44;;;;;;;0.20;0.20;;;;;;;;;;5033323;28;20485;-84
2023/07/25 13:48:10;;;;;;;0.20;0.20;;;;;;;;;;5033815;28;20591;-84
2023/07/25 13:50:36;;;;;;;2.72;0.47;;;;;;;;;;5032978;28;20025;-86
2023/07/25 13:53:03;;;;;;;0.00;0.00;;;;;;;;;;5033710;28;20430;-84
2023/07/25 13:55:29;;;;;;;0.00;0.00;;;;;;;;;;5033443;28;20045;-83
2023/07/25 13:57:54;;;;;;;0.00;0.00;;;;;;;;;;5032990;28;20060;-84
2023/07/25 14:00:21;;;;;;;0.13;0.13;;;;;;;;;;5033197;28;20396;-83
2023/07/25 14:02:47;;;;;;;0.10;0.10;;;;;;;;;;5033704;28;20026;-84
2023/07/25 14:05:12;;;;;;;0.00;0.00;;;;;;;;;;5033002;28;20029;-85
2023/07/25 14:07:39;;;;;;;0.10;0.10;;;;;;;;;;5033818;28;20124;-85
2023/07/25 14:10:05;;;;;;;0.00;0.00;;;;;;;;;;5033127;28;20553;-85
2023/07/25 14:12:31;;;;;;;0.30;0.30;;;;;;;;;;5032556;28;20035;-85
2023/07/25 14:14:57;;;;;;;0.20;0.10;;;;;;;;;;5033358;28;20096;-85
2023/07/25 14:17:23;;;;;;;0.00;0.00;;;;;;;;;;5032664;28;20110;-85
2023/07/25 14:19:49;;;;;;;0.00;0.00;;;;;;;;;;5032607;28;20025;-85
2023/07/25 14:22:15;;;;;;;0.00;0.00;;;;;;;;;;5032967;28;20500;-85
2023/07/25 14:24:41;;;;;;;0.10;0.10;;;;;;;;;;5032419;28;20024;-85
2023/07/25 14:27:07;;;;;;;0.13;0.10;;;;;;;;;;5031924;28;20052;-86
2023/07/25 14:29:33;;;;;;;0.00;0.00;;;;;;;;;;5033026;28;20025;-85
2023/07/25 14:31:59;;;;;;;0.05;0.05;;;;;;;;;;5032489;28;20164;-85
2023/07/25 14:34:25;;;;;;;0.10;0.10;;;;;;;;;;5032255;28;20100;-85
2023/07/25 14:36:51;;;;;;;0.00;0.00;;;;;;;;;;5032689;28;20470;-85
2023/07/25 14:39:17;;;;;;;0.22;0.17;;;;;;;;;;5032965;28;20026;-83